Time;durP1;ratioP1;P1;durP2;ratioP2;P2;SDS_P1;SDS_P2;PMS_P1;PMS_P2;Temp;Humidity;BMP_temperature;BMP_pressure;BME280_temperature;BME280_humidity;BME280_pressure;Samples;Min_cycle;Max_cycle;Signal;HPM_P1;HPM_P2
2023/07/25 00:01:06;;;;;;;5.40;2.03;;;13.40;99.90;;;;;;5097799;28;20051;-82
2023/07/25 00:03:33;;;;;;;10.32;2.00;;;13.40;99.90;;;;;;5079903;28;20394;-81
2023/07/25 00:06:02;;;;;;;7.57;2.20;;;13.30;99.90;;;;;;5079263;28;20382;-82
2023/07/25 00:08:28;;;;;;;14.85;2.47;;;13.30;99.90;;;;;;5098128;28;20435;-83
2023/07/25 00:10:55;;;;;;;8.90;2.50;;;13.30;99.90;;;;;;5080537;28;20044;-81
2023/07/25 00:13:22;;;;;;;9.75;2.42;;;13.30;99.90;;;;;;5079249;28;20047;-81
2023/07/25 00:18:20;;;;;;;7.07;2.28;;;13.20;99.90;;;;;;5079127;28;20055;-82
2023/07/25 00:20:46;;;;;;;5.75;2.13;;;13.20;99.90;;;;;;5062281;28;20126;-81
2023/07/25 00:23:13;;;;;;;5.93;2.30;;;13.20;99.90;;;;;;5080188;28;20044;-82
2023/07/25 00:28:12;;;;;;;;;;;13.20;99.90;;;;;;5077272;28;20094;-81
2023/07/25 00:30:42;;;;;;;6.38;2.40;;;13.20;99.90;;;;;;5042963;28;19920;-83
2023/07/25 00:33:08;;;;;;;6.25;2.20;;;13.20;99.90;;;;;;5076051;28;20041;-81
2023/07/25 00:35:36;;;;;;;9.80;2.42;;;13.20;99.90;;;;;;5059403;28;20051;-81
2023/07/25 00:38:04;;;;;;;7.00;2.20;;;13.20;99.90;;;;;;5059768;28;20048;-81
2023/07/25 00:40:31;;;;;;;8.13;2.40;;;13.20;99.90;;;;;;5076410;28;20090;-82
2023/07/25 00:42:58;;;;;;;6.05;2.17;;;13.20;99.90;;;;;;5059095;28;20059;-82
2023/07/25 00:45:27;;;;;;;6.22;2.53;;;13.20;99.90;;;;;;5058313;28;20110;-82
2023/07/25 00:47:53;;;;;;;8.88;2.45;;;13.30;99.90;;;;;;5059057;28;20048;-83
2023/07/25 00:50:20;;;;;;;10.75;2.83;;;13.20;99.90;;;;;;5059494;28;20106;-84
2023/07/25 00:52:47;;;;;;;7.55;2.53;;;13.20;99.90;;;;;;5057989;28;20067;-83
2023/07/25 00:55:14;;;;;;;6.20;2.25;;;13.20;99.90;;;;;;5076709;28;20045;-82
2023/07/25 00:57:42;;;;;;;7.57;1.95;;;13.20;99.90;;;;;;5059185;28;20075;-82
2023/07/25 01:00:09;;;;;;;7.18;2.50;;;13.20;99.90;;;;;;5041552;28;20041;-82
2023/07/25 01:02:36;;;;;;;6.00;2.42;;;13.10;99.90;;;;;;5058844;28;20045;-82
2023/07/25 01:05:03;;;;;;;6.32;2.45;;;13.10;99.90;;;;;;5058616;28;20441;-82
2023/07/25 01:07:31;;;;;;;5.63;2.17;;;13.00;99.90;;;;;;5058944;28;20509;-82
2023/07/25 01:09:58;;;;;;;5.22;2.10;;;13.00;99.90;;;;;;5059259;28;20466;-83
2023/07/25 01:12:25;;;;;;;7.55;2.28;;;13.00;99.90;;;;;;5058081;28;20117;-82
2023/07/25 01:14:51;;;;;;;9.77;2.50;;;12.90;99.90;;;;;;5058663;28;20051;-82
2023/07/25 01:20:07;;;;;;;8.18;2.42;;;12.90;99.90;;;;;;5075424;28;20036;-81
2023/07/25 01:22:34;;;;;;;8.60;2.25;;;12.90;99.90;;;;;;5058348;28;20048;-82
2023/07/25 01:25:02;;;;;;;9.02;2.28;;;12.80;99.90;;;;;;5057472;28;20033;-83
2023/07/25 01:30:14;;;;;;;8.65;2.45;;;12.80;99.90;;;;;;5058015;28;20064;-81
2023/07/25 01:32:41;;;;;;;5.85;2.00;;;12.70;99.90;;;;;;5057397;28;20119;-82
2023/07/25 01:35:08;;;;;;;6.63;2.03;;;12.70;99.90;;;;;;5058183;28;20139;-80
2023/07/25 01:37:37;;;;;;;7.65;2.28;;;12.60;99.90;;;;;;5041954;28;20048;-82
2023/07/25 01:40:04;;;;;;;5.47;2.20;;;12.60;99.90;;;;;;5075025;28;20119;-81
2023/07/25 01:42:31;;;;;;;4.68;1.88;;;12.60;99.90;;;;;;5057718;28;20056;-83
2023/07/25 01:45:01;;;;;;;6.22;2.40;;;12.60;99.90;;;;;;5041088;28;20055;-82
2023/07/25 01:47:30;;;;;;;7.72;2.13;;;12.60;99.90;;;;;;5075522;28;20043;-83
2023/07/25 01:49:57;;;;;;;5.60;2.20;;;12.60;99.90;;;;;;5075692;28;20041;-81
2023/07/25 01:52:23;;;;;;;4.95;1.88;;;12.60;99.90;;;;;;5040386;28;20045;-82
2023/07/25 01:54:50;;;;;;;6.53;1.95;;;12.60;99.90;;;;;;5041398;28;20045;-80
2023/07/25 01:57:17;;;;;;;8.77;2.30;;;12.50;99.90;;;;;;5041560;28;20045;-81
2023/07/25 01:59:44;;;;;;;4.85;2.00;;;12.50;99.90;;;;;;5040493;28;20037;-82
2023/07/25 02:02:11;;;;;;;7.22;2.38;;;12.60;99.90;;;;;;5041585;28;20040;-80
2023/07/25 02:04:38;;;;;;;5.93;2.10;;;12.60;99.90;;;;;;5057660;28;20379;-82
2023/07/25 02:07:05;;;;;;;5.60;2.08;;;12.60;99.90;;;;;;5040448;28;20383;-80
2023/07/25 02:09:32;;;;;;;6.22;2.30;;;12.60;99.90;;;;;;5057679;28;20371;-83
2023/07/25 02:11:58;;;;;;;7.25;2.55;;;12.50;99.90;;;;;;5056932;28;20372;-81
2023/07/25 02:14:25;;;;;;;6.20;2.28;;;12.50;99.90;;;;;;5041167;28;20040;-81
2023/07/25 02:16:53;;;;;;;6.78;2.50;;;12.50;99.90;;;;;;5057491;28;20047;-82
2023/07/25 02:19:20;;;;;;;6.03;2.30;;;12.40;99.90;;;;;;5041029;28;20371;-82
2023/07/25 02:21:47;;;;;;;8.23;2.38;;;12.40;99.90;;;;;;5057824;28;20055;-82
2023/07/25 02:24:14;;;;;;;5.88;2.33;;;12.40;99.90;;;;;;5040693;28;20529;-82
2023/07/25 02:29:28;;;;;;;7.85;2.30;;;12.50;99.90;;;;;;5057722;28;20494;-82
2023/07/25 02:31:55;;;;;;;6.32;2.55;;;12.40;99.90;;;;;;5056741;28;20048;-82
2023/07/25 02:34:22;;;;;;;7.22;2.58;;;12.40;99.90;;;;;;5057119;28;20442;-83
2023/07/25 02:36:49;;;;;;;8.23;2.40;;;12.40;99.90;;;;;;5057425;28;20043;-81
2023/07/25 02:39:16;;;;;;;9.43;2.60;;;12.40;99.90;;;;;;5056972;28;20044;-81
2023/07/25 02:41:43;;;;;;;7.78;2.60;;;12.40;99.90;;;;;;5056803;28;20055;-82
2023/07/25 02:44:10;;;;;;;7.30;3.20;;;12.40;99.90;;;;;;5040096;28;20548;-81
2023/07/25 02:46:37;;;;;;;7.50;2.40;;;12.40;99.90;;;;;;5057272;28;20360;-83
2023/07/25 02:49:04;;;;;;;5.85;2.30;;;12.40;99.90;;;;;;5057280;28;20049;-82
2023/07/25 02:51:31;;;;;;;8.15;2.20;;;12.40;99.90;;;;;;5040361;28;20045;-82
2023/07/25 02:53:58;;;;;;;8.07;2.60;;;12.40;99.90;;;;;;5055897;28;20055;-83
2023/07/25 02:56:28;;;;;;;7.55;2.40;;;12.50;99.90;;;;;;5074681;28;20063;-83
2023/07/25 02:58:55;;;;;;;6.82;2.58;;;12.50;99.90;;;;;;5056202;28;20140;-82
2023/07/25 03:01:22;;;;;;;6.97;2.33;;;12.60;99.90;;;;;;5074518;28;20045;-83
2023/07/25 03:03:48;;;;;;;5.43;2.35;;;12.60;99.90;;;;;;5074391;28;20029;-84
2023/07/25 03:06:16;;;;;;;6.85;2.42;;;12.60;99.90;;;;;;5039633;28;20051;-83
2023/07/25 03:08:43;;;;;;;7.07;2.13;;;12.60;99.90;;;;;;5056958;28;20136;-83
2023/07/25 03:11:11;;;;;;;6.95;2.03;;;12.60;99.90;;;;;;5056991;28;20119;-81
2023/07/25 03:13:38;;;;;;;4.90;1.98;;;12.70;99.90;;;;;;5056169;28;20053;-82
2023/07/25 03:16:05;;;;;;;7.10;2.20;;;12.70;99.90;;;;;;5057672;28;20048;-82
2023/07/25 03:18:32;;;;;;;7.05;2.33;;;12.70;99.90;;;;;;5073694;28;20083;-84
2023/07/25 03:20:59;;;;;;;8.38;2.42;;;12.70;99.90;;;;;;5040549;28;20127;-82
2023/07/25 03:23:26;;;;;;;6.93;2.13;;;12.70;99.90;;;;;;5056563;28;20052;-82
2023/07/25 03:25:53;;;;;;;6.95;3.03;;;12.70;99.90;;;;;;5055733;28;20412;-80
2023/07/25 03:28:20;;;;;;;6.25;2.15;;;12.60;99.90;;;;;;5057007;28;20052;-81
2023/07/25 03:30:46;;;;;;;7.35;2.38;;;12.60;99.90;;;;;;5040104;28;20127;-82
2023/07/25 03:33:13;;;;;;;6.30;2.00;;;12.60;99.90;;;;;;5055882;28;20068;-83
2023/07/25 03:35:41;;;;;;;7.50;2.30;;;12.60;99.90;;;;;;5057036;28;20068;-81
2023/07/25 03:38:10;;;;;;;6.57;2.40;;;12.60;99.90;;;;;;5056571;28;20447;-82
2023/07/25 03:40:37;;;;;;;6.00;2.28;;;12.50;99.90;;;;;;5055725;28;20085;-83
2023/07/25 03:43:04;;;;;;;5.65;2.20;;;12.60;99.90;;;;;;5056423;28;20538;-81
2023/07/25 03:45:32;;;;;;;10.63;2.55;;;12.50;99.90;;;;;;5039158;28;20070;-82
2023/07/25 03:47:58;;;;;;;8.10;2.55;;;12.50;99.90;;;;;;5056524;28;20099;-82
2023/07/25 03:50:26;;;;;;;9.25;2.42;;;12.50;99.90;;;;;;5074039;28;20124;-81
2023/07/25 03:52:52;;;;;;;11.13;2.20;;;12.60;99.90;;;;;;5055899;28;20044;-81
2023/07/25 03:55:19;;;;;;;6.50;2.28;;;12.60;99.90;;;;;;5043871;28;20048;-82
2023/07/25 03:57:46;;;;;;;7.22;2.38;;;12.70;99.90;;;;;;5060097;28;20083;-81
2023/07/25 04:00:13;;;;;;;5.25;2.00;;;12.60;99.90;;;;;;5077387;28;20458;-83
2023/07/25 04:02:39;;;;;;;7.43;1.92;;;12.60;99.90;;;;;;5059993;28;20054;-81
2023/07/25 04:05:07;;;;;;;9.43;2.50;;;12.70;99.90;;;;;;5042668;28;20040;-83
2023/07/25 04:07:36;;;;;;;8.30;2.53;;;12.80;99.90;;;;;;5060173;28;20147;-83
2023/07/25 04:10:03;;;;;;;6.35;2.65;;;12.80;99.90;;;;;;5060697;28;20359;-81
2023/07/25 04:12:30;;;;;;;8.82;2.60;;;12.80;99.90;;;;;;5058823;28;20045;-81
2023/07/25 04:14:56;;;;;;;7.68;2.47;;;12.90;99.90;;;;;;5060021;28;20453;-81
2023/07/25 04:17:23;;;;;;;8.35;2.78;;;12.90;99.90;;;;;;5060570;28;20048;-82
2023/07/25 04:19:50;;;;;;;6.18;2.72;;;12.90;99.90;;;;;;5042471;28;20135;-80
2023/07/25 04:22:17;;;;;;;9.35;2.63;;;12.80;99.90;;;;;;5042994;28;20103;-80
2023/07/25 04:24:44;;;;;;;11.68;2.60;;;12.90;99.90;;;;;;5077943;28;20366;-83
2023/07/25 04:27:12;;;;;;;6.40;2.10;;;12.90;99.90;;;;;;5042798;28;20041;-81
2023/07/25 04:29:38;;;;;;;11.10;2.90;;;12.80;99.90;;;;;;5059901;28;20470;-81
2023/07/25 04:32:05;;;;;;;8.25;2.70;;;12.80;99.90;;;;;;5058482;28;20040;-81
2023/07/25 04:34:32;;;;;;;5.55;2.08;;;12.80;99.90;;;;;;5059746;28;20148;-82
2023/07/25 04:36:59;;;;;;;8.57;2.50;;;12.90;99.90;;;;;;5059794;28;20407;-84
2023/07/25 04:39:25;;;;;;;8.77;2.70;;;12.80;99.90;;;;;;5076476;28;20123;-81
2023/07/25 04:41:52;;;;;;;10.50;2.67;;;12.90;99.90;;;;;;5076792;28;20531;-84
2023/07/25 04:44:19;;;;;;;6.28;2.42;;;12.80;99.90;;;;;;5042601;28;20098;-82
2023/07/25 04:46:46;;;;;;;6.45;2.88;;;12.90;99.90;;;;;;5076171;28;20352;-82
2023/07/25 04:49:13;;;;;;;8.25;2.78;;;12.90;99.90;;;;;;5043272;28;20136;-83
2023/07/25 04:51:40;;;;;;;7.03;2.92;;;12.90;99.90;;;;;;5076013;28;20043;-84
2023/07/25 04:54:07;;;;;;;6.40;2.42;;;12.90;99.90;;;;;;5042728;28;20075;-83
2023/07/25 04:56:36;;;;;;;12.55;2.70;;;13.00;99.90;;;;;;5042748;28;20124;-83
2023/07/25 04:59:02;;;;;;;7.82;2.90;;;13.00;99.90;;;;;;5041806;28;20048;-82
2023/07/25 05:01:29;;;;;;;7.45;2.63;;;13.00;99.90;;;;;;5042276;28;20394;-83
2023/07/25 05:03:57;;;;;;;7.38;2.95;;;13.00;99.90;;;;;;5058771;28;20418;-81
2023/07/25 05:06:25;;;;;;;8.38;2.40;;;13.00;99.90;;;;;;5075346;28;20036;-84
2023/07/25 05:08:51;;;;;;;8.57;2.47;;;13.10;99.90;;;;;;5076439;28;20048;-80
2023/07/25 05:11:18;;;;;;;11.27;3.22;;;13.10;99.90;;;;;;5042639;28;20048;-80
2023/07/25 05:13:45;;;;;;;9.32;2.75;;;13.20;99.90;;;;;;5058495;28;20639;-82
2023/07/25 05:16:13;;;;;;;6.60;2.80;;;13.20;99.90;;;;;;5077026;28;20082;-83
2023/07/25 05:18:39;;;;;;;8.05;2.95;;;13.30;99.90;;;;;;5058060;28;20106;-83
2023/07/25 05:21:06;;;;;;;7.00;2.70;;;13.30;99.90;;;;;;5058675;28;20085;-82
2023/07/25 05:23:33;;;;;;;9.93;3.03;;;13.30;99.90;;;;;;5042902;28;20040;-81
2023/07/25 05:26:01;;;;;;;11.70;2.95;;;13.40;99.90;;;;;;5095676;28;20055;-82
2023/07/25 05:28:28;;;;;;;8.20;2.60;;;13.40;99.90;;;;;;5096379;28;20036;-81
2023/07/25 05:30:54;;;;;;;6.57;2.60;;;13.40;99.90;;;;;;5061825;28;20540;-84
2023/07/25 05:33:21;;;;;;;9.88;2.78;;;13.40;99.90;;;;;;5077711;28;20056;-84
2023/07/25 05:35:48;;;;;;;8.18;2.70;;;13.50;99.90;;;;;;5078373;28;20040;-83
2023/07/25 05:38:15;;;;;;;8.65;2.92;;;13.50;99.90;;;;;;5078542;28;20117;-82
2023/07/25 05:40:42;;;;;;;7.53;2.60;;;13.60;99.90;;;;;;5078520;28;20093;-84
2023/07/25 05:43:11;;;;;;;9.07;2.50;;;13.60;99.90;;;;;;5096102;28;20048;-81
2023/07/25 05:45:39;;;;;;;7.15;2.45;;;13.70;99.90;;;;;;5060948;28;20058;-83
2023/07/25 05:48:06;;;;;;;7.63;2.85;;;13.70;99.90;;;;;;5095905;28;20439;-82
2023/07/25 05:50:33;;;;;;;9.57;2.85;;;13.80;99.90;;;;;;5077998;28;20040;-83
2023/07/25 05:52:59;;;;;;;12.77;2.95;;;13.80;99.90;;;;;;5095037;28;20044;-81
2023/07/25 05:55:26;;;;;;;7.93;2.80;;;13.80;99.90;;;;;;5078253;28;20036;-81
2023/07/25 05:57:53;;;;;;;9.70;2.80;;;13.90;99.90;;;;;;5078519;28;20058;-81
2023/07/25 06:00:20;;;;;;;9.40;3.03;;;13.90;99.90;;;;;;5060716;28;20047;-82
2023/07/25 06:02:48;;;;;;;9.13;3.53;;;13.90;99.90;;;;;;5078416;28;20123;-83
2023/07/25 06:05:14;;;;;;;10.75;2.80;;;14.00;99.90;;;;;;5094732;28;20070;-83
2023/07/25 06:07:42;;;;;;;11.82;3.63;;;14.00;99.90;;;;;;5095499;28;20036;-84
2023/07/25 06:10:09;;;;;;;10.07;3.03;;;14.10;99.90;;;;;;5096019;28;20044;-84
2023/07/25 06:12:36;;;;;;;9.43;3.28;;;14.10;99.90;;;;;;5076832;28;20090;-82
2023/07/25 06:15:03;;;;;;;7.45;2.75;;;14.10;99.90;;;;;;5095577;28;20044;-82
2023/07/25 06:17:32;;;;;;;13.50;3.38;;;14.00;99.90;;;;;;5094502;28;20047;-83
2023/07/25 06:19:58;;;;;;;11.23;3.28;;;14.00;99.90;;;;;;5094623;28;20062;-82
2023/07/25 06:22:25;;;;;;;9.77;3.47;;;13.90;99.90;;;;;;5094953;28;20040;-81
2023/07/25 06:24:52;;;;;;;7.65;3.15;;;14.00;99.90;;;;;;5095386;28;20064;-81
2023/07/25 06:29:52;;;;;;;12.85;3.65;;;14.30;99.90;;;;;;5095410;28;20047;-82
2023/07/25 06:32:19;;;;;;;9.95;3.40;;;14.50;99.90;;;;;;5076472;28;20058;-83
2023/07/25 06:34:46;;;;;;;16.45;3.42;;;14.60;99.90;;;;;;5095489;28;20075;-82
2023/07/25 06:37:13;;;;;;;11.38;3.53;;;14.80;99.90;;;;;;5061228;28;20047;-81
2023/07/25 06:39:39;;;;;;;11.10;3.35;;;15.00;99.90;;;;;;5076611;28;20051;-83
2023/07/25 06:42:06;;;;;;;10.18;3.90;;;15.20;99.90;;;;;;5077317;28;20044;-82
2023/07/25 06:44:35;;;;;;;9.10;3.75;;;15.40;99.90;;;;;;5077387;28;20053;-82
2023/07/25 06:47:04;;;;;;;6.65;3.08;;;15.40;99.90;;;;;;5059828;28;20460;-82
2023/07/25 06:49:30;;;;;;;13.52;3.60;;;15.40;99.90;;;;;;5078268;28;20436;-84
2023/07/25 06:52:00;;;;;;;10.48;3.28;;;15.40;99.90;;;;;;5076299;28;20403;-82
2023/07/25 06:54:26;;;;;;;7.97;3.38;;;15.40;99.90;;;;;;5095154;28;20134;-81
2023/07/25 06:56:55;;;;;;;9.65;3.35;;;15.40;99.90;;;;;;5094747;28;20040;-82
2023/07/25 06:59:22;;;;;;;11.30;3.42;;;15.40;99.90;;;;;;5060459;28;20109;-83
2023/07/25 07:01:49;;;;;;;6.97;3.25;;;15.40;99.90;;;;;;5094620;28;20048;-83
2023/07/25 07:04:15;;;;;;;9.82;3.10;;;15.50;99.90;;;;;;5076648;28;20401;-83
2023/07/25 07:06:42;;;;;;;8.70;3.25;;;15.50;99.90;;;;;;5076029;28;20047;-83
2023/07/25 07:09:09;;;;;;;13.13;3.47;;;15.70;99.90;;;;;;5094844;28;20040;-81
2023/07/25 07:11:36;;;;;;;7.43;2.97;;;15.90;99.90;;;;;;5076525;28;20068;-80
2023/07/25 07:14:02;;;;;;;8.98;2.92;;;16.10;99.90;;;;;;5094756;28;20390;-81
2023/07/25 07:16:30;;;;;;;8.93;2.80;;;16.20;99.90;;;;;;5095370;28;20040;-83
2023/07/25 07:18:57;;;;;;;9.65;2.67;;;16.20;99.90;;;;;;5075980;28;20083;-83
2023/07/25 07:21:24;;;;;;;7.57;2.75;;;16.20;99.90;;;;;;5094478;28;20466;-82
2023/07/25 07:23:50;;;;;;;11.55;3.08;;;16.40;99.90;;;;;;5059975;28;20050;-83
2023/07/25 07:29:04;;;;;;;11.85;3.03;;;16.70;99.90;;;;;;5096660;28;20083;-83
2023/07/25 07:31:31;;;;;;;12.60;2.55;;;16.90;99.90;;;;;;5081383;28;20098;-82
2023/07/25 07:33:58;;;;;;;9.88;3.78;;;17.00;99.90;;;;;;5059846;28;20051;-83
2023/07/25 07:36:26;;;;;;;11.45;2.60;;;17.10;99.90;;;;;;5078175;28;20045;-83
2023/07/25 07:38:53;;;;;;;13.00;3.00;;;17.30;99.90;;;;;;5059821;28;20044;-84
2023/07/25 07:41:19;;;;;;;7.60;2.50;;;17.50;99.90;;;;;;5077668;28;20061;-84
2023/07/25 07:43:46;;;;;;;8.13;2.85;;;17.40;99.90;;;;;;5060061;28;20044;-82
2023/07/25 07:46:13;;;;;;;7.57;2.88;;;17.60;99.90;;;;;;5076906;28;20402;-81
2023/07/25 07:48:43;;;;;;;11.73;2.85;;;17.60;99.90;;;;;;5060455;28;20055;-81
2023/07/25 07:51:09;;;;;;;9.43;2.60;;;17.80;99.90;;;;;;5060022;28;20056;-81
2023/07/25 07:53:38;;;;;;;8.35;2.47;;;17.80;99.90;;;;;;5076766;28;20118;-81
2023/07/25 07:56:05;;;;;;;7.75;2.25;;;17.90;99.90;;;;;;5077601;28;20435;-80
2023/07/25 07:58:32;;;;;;;8.45;2.17;;;17.90;99.90;;;;;;5066196;28;20105;-82
2023/07/25 08:00:59;;;;;;;12.30;2.20;;;17.90;99.90;;;;;;5060437;28;20047;-81
2023/07/25 08:03:26;;;;;;;7.60;2.40;;;18.00;99.90;;;;;;5060125;28;20036;-82
2023/07/25 08:05:52;;;;;;;11.20;2.75;;;18.40;99.90;;;;;;5077138;28;20451;-80
2023/07/25 08:08:19;;;;;;;11.23;2.67;;;18.70;99.90;;;;;;5077469;28;20044;-81
2023/07/25 08:10:46;;;;;;;9.48;2.35;;;18.50;99.90;;;;;;5059920;28;20044;-81
2023/07/25 08:13:13;;;;;;;10.50;2.65;;;18.60;99.90;;;;;;5058823;28;20395;-80
2023/07/25 08:15:40;;;;;;;10.65;2.75;;;18.50;99.90;;;;;;5060047;28;20052;-80
2023/07/25 08:18:07;;;;;;;7.90;2.53;;;18.30;99.90;;;;;;5068286;28;20410;-81
2023/07/25 08:20:34;;;;;;;7.78;2.65;;;18.30;99.90;;;;;;5059089;28;20098;-79
2023/07/25 08:23:01;;;;;;;11.82;2.70;;;18.10;99.90;;;;;;5077173;28;20097;-80
2023/07/25 08:25:29;;;;;;;10.27;2.70;;;17.90;99.90;;;;;;5058408;28;20340;-81
2023/07/25 08:27:55;;;;;;;9.27;2.35;;;17.90;99.90;;;;;;5076663;28;20400;-80
2023/07/25 08:30:24;;;;;;;11.77;2.60;;;17.80;99.90;;;;;;5056356;28;20438;-80
2023/07/25 08:32:50;;;;;;;8.85;2.25;;;17.80;99.90;;;;;;5055942;28;20069;-81
2023/07/25 08:35:17;;;;;;;15.85;3.00;;;17.70;99.90;;;;;;5069671;28;20055;-81
2023/07/25 08:37:44;;;;;;;7.65;2.85;;;17.80;99.90;;;;;;5073869;28;20529;-81
2023/07/25 08:40:11;;;;;;;7.53;2.58;;;18.00;99.90;;;;;;5074605;28;20071;-80
2023/07/25 08:42:38;;;;;;;14.02;2.92;;;18.20;99.90;;;;;;5058773;28;20189;-81
2023/07/25 08:45:04;;;;;;;9.30;2.70;;;18.20;99.90;;;;;;5058394;28;20075;-81
2023/07/25 08:47:33;;;;;;;11.15;2.70;;;18.30;99.90;;;;;;5058465;28;20489;-81
2023/07/25 08:50:00;;;;;;;8.30;2.83;;;18.20;99.90;;;;;;5059467;28;20459;-82
2023/07/25 08:52:27;;;;;;;6.45;2.88;;;18.10;99.90;;;;;;5075825;28;20051;-81
2023/07/25 08:54:54;;;;;;;8.10;2.97;;;18.00;99.90;;;;;;5058396;28;20048;-81
2023/07/25 08:57:23;;;;;;;12.38;3.00;;;18.00;99.90;;;;;;5076374;28;20102;-82
2023/07/25 08:59:49;;;;;;;13.32;3.38;;;18.00;99.90;;;;;;5058668;28;20041;-81
2023/07/25 09:02:16;;;;;;;9.15;2.97;;;18.40;99.90;;;;;;5058970;28;20052;-81
2023/07/25 09:04:43;;;;;;;7.03;2.80;;;18.70;99.90;;;;;;5058768;28;20466;-80
2023/07/25 09:07:11;;;;;;;6.40;2.70;;;18.90;99.90;;;;;;5075651;28;20466;-80
2023/07/25 09:09:38;;;;;;;9.27;3.22;;;18.90;99.90;;;;;;5076672;28;20044;-80
2023/07/25 09:12:04;;;;;;;6.78;2.35;;;19.10;99.90;;;;;;5075533;28;20124;-81
2023/07/25 09:14:31;;;;;;;8.00;2.70;;;19.20;99.90;;;;;;5076715;28;20044;-80
2023/07/25 09:16:59;;;;;;;8.18;2.80;;;19.50;99.90;;;;;;5076294;28;20522;-80
2023/07/25 09:19:26;;;;;;;8.93;2.63;;;19.50;99.90;;;;;;5075346;28;20118;-81
2023/07/25 09:21:53;;;;;;;7.88;2.47;;;19.50;99.90;;;;;;5076155;28;20383;-81
2023/07/25 09:24:20;;;;;;;10.10;2.53;;;19.70;99.90;;;;;;5075019;28;20470;-82
2023/07/25 09:26:49;;;;;;;6.57;2.50;;;19.60;99.90;;;;;;5057259;28;20040;-85
2023/07/25 09:29:16;;;;;;;6.38;2.33;;;19.80;99.90;;;;;;5073443;28;20033;-82
2023/07/25 09:31:43;;;;;;;7.05;2.42;;;20.10;99.90;;;;;;5057240;28;20041;-80
2023/07/25 09:34:10;;;;;;;5.90;2.22;;;20.20;99.90;;;;;;5057779;28;20135;-80
2023/07/25 09:36:39;;;;;;;7.45;2.33;;;20.60;99.90;;;;;;5075354;28;20049;-80
2023/07/25 09:39:06;;;;;;;4.85;1.90;;;20.60;99.90;;;;;;5074707;28;20040;-81
2023/07/25 09:41:33;;;;;;;7.40;1.98;;;20.30;99.90;;;;;;5056798;28;20094;-80
2023/07/25 09:44:02;;;;;;;4.75;1.85;;;20.20;99.90;;;;;;5075165;28;20055;-80
2023/07/25 09:46:31;;;;;;;6.35;1.83;;;20.10;99.90;;;;;;5056563;28;20072;-81
2023/07/25 09:48:58;;;;;;;6.95;2.08;;;20.00;99.90;;;;;;5040535;28;20071;-81
2023/07/25 09:51:25;;;;;;;4.53;1.70;;;19.80;99.90;;;;;;5074485;28;20766;-81
2023/07/25 09:53:52;;;;;;;5.63;1.85;;;19.60;99.90;;;;;;5074390;28;20048;-85
2023/07/25 09:59:05;;;;;;;6.15;2.05;;;20.40;99.90;;;;;;5074598;28;20098;-84
2023/07/25 10:01:33;;;;;;;5.95;1.60;;;20.70;99.90;;;;;;5075059;28;20524;-83
2023/07/25 10:04:00;;;;;;;7.20;1.60;;;20.80;99.90;;;;;;5041034;28;20057;-81
2023/07/25 10:06:29;;;;;;;4.97;1.80;;;20.60;99.90;;;;;;5074226;28;20463;-82
2023/07/25 10:08:56;;;;;;;5.03;1.80;;;20.40;99.90;;;;;;5075121;28;20037;-84
2023/07/25 10:11:24;;;;;;;5.43;1.77;;;20.10;99.90;;;;;;5074779;28;20074;-84
2023/07/25 10:13:51;;;;;;;6.63;1.70;;;20.30;99.90;;;;;;5056887;28;20051;-83
2023/07/25 10:16:20;;;;;;;6.50;1.65;;;20.70;99.90;;;;;;5074828;28;20329;-85
2023/07/25 10:18:47;;;;;;;4.90;1.75;;;21.30;99.90;;;;;;5057415;28;20076;-83
2023/07/25 10:21:13;;;;;;;4.00;1.50;;;21.30;99.90;;;;;;5057431;28;20363;-83
2023/07/25 10:23:40;;;;;;;4.70;1.83;;;21.30;99.90;;;;;;5074888;28;20036;-82
2023/07/25 10:28:54;;;;;;;5.50;1.90;;;21.60;99.90;;;;;;5074587;28;20055;-83
2023/07/25 10:31:22;;;;;;;6.47;1.92;;;21.30;99.90;;;;;;5057264;28;20048;-84
2023/07/25 10:33:48;;;;;;;5.25;1.90;;;20.90;99.90;;;;;;5056025;28;20375;-82
2023/07/25 10:36:15;;;;;;;5.90;1.63;;;20.60;99.90;;;;;;5074657;28;20478;-82
2023/07/25 10:38:44;;;;;;;5.20;1.73;;;20.80;99.90;;;;;;5073928;28;20044;-84
2023/07/25 10:41:18;;;;;;;8.73;1.80;;;21.20;99.90;;;;;;5056916;28;20041;-83
2023/07/25 10:43:49;;;;;;;5.35;1.90;;;21.40;99.90;;;;;;5056859;28;20045;-82
2023/07/25 10:46:17;;;;;;;6.03;1.83;;;21.70;99.90;;;;;;5074050;28;20040;-84
2023/07/25 10:48:44;;;;;;;6.57;1.65;;;22.10;99.90;;;;;;5075030;28;20047;-83
2023/07/25 10:51:12;;;;;;;6.78;1.50;;;22.40;99.90;;;;;;5074521;28;20086;-83
2023/07/25 10:53:39;;;;;;;6.85;1.70;;;22.60;99.90;;;;;;5073649;28;20051;-83
2023/07/25 10:56:07;;;;;;;5.10;1.63;;;22.80;99.90;;;;;;5057103;28;20052;-83
2023/07/25 10:58:39;;;;;;;5.25;1.88;;;22.80;99.90;;;;;;5056364;28;20052;-88
2023/07/25 11:01:05;;;;;;;7.72;1.77;;;23.20;99.90;;;;;;5056949;28;20471;-86
2023/07/25 11:03:32;;;;;;;5.22;1.92;;;23.20;99.90;;;;;;5039842;28;20127;-85
2023/07/25 11:08:29;;;;;;;6.07;1.85;;;22.90;99.90;;;;;;5056668;28;20048;-82
2023/07/25 11:10:56;;;;;;;5.75;2.10;;;22.70;99.90;;;;;;5056511;28;20106;-82
2023/07/25 11:13:22;;;;;;;6.30;1.98;;;22.00;99.90;;;;;;5056148;28;20044;-81
2023/07/25 11:15:50;;;;;;;5.57;2.00;;;22.00;99.90;;;;;;5040135;28;20444;-82
2023/07/25 11:18:16;;;;;;;7.05;1.67;;;22.10;99.90;;;;;;5059286;28;20040;-82
2023/07/25 11:20:43;;;;;;;4.70;1.90;;;21.90;99.90;;;;;;5076139;28;20041;-82
2023/07/25 11:23:10;;;;;;;7.72;2.05;;;22.30;99.90;;;;;;5056373;28;20072;-83
2023/07/25 11:25:39;;;;;;;6.43;1.80;;;22.90;99.90;;;;;;5039016;28;20040;-83
2023/07/25 11:28:06;;;;;;;5.18;1.98;;;23.40;99.90;;;;;;5074057;28;20059;-82
2023/07/25 11:30:34;;;;;;;5.72;1.98;;;24.10;99.90;;;;;;5040141;28;20459;-80
2023/07/25 11:33:01;;;;;;;7.07;2.22;;;24.30;99.90;;;;;;5055620;28;20037;-82
2023/07/25 11:35:27;;;;;;;5.50;2.28;;;24.70;99.90;;;;;;5056419;28;20441;-80
2023/07/25 11:37:54;;;;;;;8.85;2.58;;;24.80;99.90;;;;;;5074101;28;20094;-80
2023/07/25 11:40:22;;;;;;;6.15;2.55;;;25.20;99.90;;;;;;5073515;28;20078;-82
2023/07/25 11:42:48;;;;;;;6.75;2.20;;;25.50;99.90;;;;;;5031192;28;20068;-85
2023/07/25 11:45:15;;;;;;;7.90;2.53;;;25.90;99.70;;;;;;5053840;28;20534;-85
2023/07/25 11:47:42;;;;;;;5.95;2.50;;;26.20;97.80;;;;;;5068365;28;20037;-82
2023/07/25 11:50:09;;;;;;;7.28;2.50;;;26.50;98.00;;;;;;5054061;28;20551;-83
2023/07/25 11:52:41;;;;;;;5.85;2.33;;;26.70;99.90;;;;;;5054039;28;20823;-83
2023/07/25 11:55:08;;;;;;;7.80;2.60;;;27.30;97.20;;;;;;5039696;28;20032;-85
2023/07/25 11:57:36;;;;;;;7.55;2.45;;;26.60;96.50;;;;;;5074687;28;20509;-82
2023/07/25 12:00:03;;;;;;;6.55;2.53;;;25.40;96.90;;;;;;5056105;28;20089;-80
2023/07/25 12:02:30;;;;;;;6.03;2.50;;;24.40;97.10;;;;;;5056737;28;20091;-79
2023/07/25 12:04:57;;;;;;;6.40;2.38;;;23.40;98.90;;;;;;5073084;28;20044;-79
2023/07/25 12:07:24;;;;;;;6.82;2.40;;;22.70;99.40;;;;;;5056454;28;20040;-82
2023/07/25 12:09:53;;;;;;;8.18;2.55;;;22.40;99.90;;;;;;5056208;28;20110;-81
2023/07/25 12:12:19;;;;;;;8.48;2.20;;;22.10;99.90;;;;;;5072123;28;20040;-79
2023/07/25 12:14:46;;;;;;;6.63;2.10;;;21.70;99.90;;;;;;5074306;28;20048;-82
2023/07/25 12:17:13;;;;;;;5.65;2.15;;;21.50;99.90;;;;;;5059189;28;20036;-81
2023/07/25 12:19:40;;;;;;;6.13;2.20;;;21.10;99.90;;;;;;5076383;28;20421;-79
2023/07/25 12:22:08;;;;;;;5.82;2.00;;;20.80;99.90;;;;;;5077119;28;20045;-81
2023/07/25 12:24:34;;;;;;;5.07;2.00;;;20.60;99.90;;;;;;5077335;28;20058;-82
2023/07/25 12:29:48;;;;;;;5.88;2.03;;;20.60;99.90;;;;;;5077026;28;20040;-83
2023/07/25 12:32:14;;;;;;;6.80;2.40;;;20.50;99.90;;;;;;5059001;28;20143;-80
2023/07/25 12:34:41;;;;;;;5.78;2.00;;;20.50;99.90;;;;;;5077172;28;20037;-80
2023/07/25 12:37:11;;;;;;;8.13;2.30;;;20.50;99.90;;;;;;5076739;28;20451;-81
2023/07/25 12:39:39;;;;;;;6.20;2.28;;;20.60;99.90;;;;;;5076334;28;20409;-81
2023/07/25 12:42:06;;;;;;;5.78;2.00;;;21.00;99.90;;;;;;5076402;28;20060;-81
2023/07/25 12:44:34;;;;;;;5.03;2.10;;;21.10;99.90;;;;;;5077178;28;20116;-82
2023/07/25 12:47:01;;;;;;;5.75;1.98;;;21.20;99.90;;;;;;5058505;28;20047;-82
2023/07/25 12:49:28;;;;;;;5.55;2.00;;;21.70;99.90;;;;;;5076912;28;20064;-81
2023/07/25 12:51:54;;;;;;;5.75;2.20;;;22.90;99.90;;;;;;5075445;28;20055;-80
2023/07/25 12:54:21;;;;;;;7.55;2.70;;;24.20;99.50;;;;;;5059172;28;20521;-81
2023/07/25 12:56:53;;;;;;;5.43;2.00;;;23.60;98.80;;;;;;5059740;28;20064;-81
2023/07/25 12:59:23;;;;;;;6.10;2.78;;;23.10;99.30;;;;;;5075696;28;20048;-83
2023/07/25 13:01:49;;;;;;;5.70;2.05;;;22.60;99.50;;;;;;5076207;28;20052;-80
2023/07/25 13:04:16;;;;;;;6.18;1.90;;;22.40;99.90;;;;;;5076366;28;20496;-82
2023/07/25 13:09:29;;;;;;;6.38;2.10;;;21.90;99.90;;;;;;5077077;28;20041;-80
2023/07/25 13:11:56;;;;;;;6.75;3.05;;;21.60;99.60;;;;;;5075200;28;20072;-80
2023/07/25 13:14:23;;;;;;;6.53;2.60;;;21.50;99.90;;;;;;5076510;28;20040;-81
2023/07/25 13:16:52;;;;;;;8.77;2.28;;;21.60;99.90;;;;;;5076350;28;20340;-81